Terminal Aerodrome Forecast
Issued by NWS Sioux Falls, SD

Home | Current Version | Previous Version | Text Only | Print | Product List | Glossary Off
Versions: 1 2 3 4 5 6 7 8 9 10 11 12 13 14 15 16 17 18 19 20 21

278
FTUS43 KFSD 110411 AAA
TAFHON
TAF AMD
KHON 110411Z 1104/1124 VRB04KT P6SM BKN015
     FM110900 12005KT P6SM OVC012
     FM111400 15004KT 5SM -SN OVC012
     FM111900 14006KT 2SM -SN BR OVC007=

USA.gov is the U.S. government's official web portal to all federal, state and local government web resources and services.